createdAt,value
2019-02-26T00:00:42.245Z,81.32
2019-02-26T00:03:06.613Z,81.77
2019-02-26T00:05:34.574Z,82.00
2019-02-26T00:08:02.672Z,82.32
2019-02-26T00:10:31.596Z,82.32
2019-02-26T00:12:58.516Z,82.51
2019-02-26T00:15:26.539Z,82.85
2019-02-26T00:17:54.973Z,82.83
2019-02-26T00:20:22.950Z,83.05
2019-02-26T00:22:52.983Z,83.07
2019-02-26T00:25:20.466Z,83.20
2019-02-26T00:27:49.335Z,83.18
2019-02-26T00:30:16.643Z,83.06
2019-02-26T00:32:44.147Z,83.16
2019-02-26T00:35:12.169Z,83.35
2019-02-26T00:37:40.396Z,83.46
2019-02-26T00:40:10.053Z,83.44
2019-02-26T00:42:37.111Z,83.56
2019-02-26T00:45:07.848Z,83.54
2019-02-26T00:47:35.953Z,83.56
2019-02-26T00:50:02.481Z,83.68
2019-02-26T00:52:32.576Z,83.82
2019-02-26T00:54:59.937Z,83.96
2019-02-26T00:57:30.962Z,84.09
2019-02-26T00:59:55.849Z,84.24
2019-02-26T01:02:23.988Z,84.45
2019-02-26T01:04:52.129Z,85.13
2019-02-26T01:07:21.355Z,85.09
2019-02-26T01:09:50.193Z,84.97
2019-02-26T01:12:18.306Z,84.76
2019-02-26T01:14:48.075Z,84.69
2019-02-26T01:17:16.988Z,84.62
2019-02-26T01:19:43.299Z,84.60
2019-02-26T01:22:10.994Z,84.55
2019-02-26T01:24:39.085Z,84.62
2019-02-26T01:27:07.314Z,84.57
2019-02-26T01:29:35.744Z,84.62
2019-02-26T01:32:03.660Z,84.60
2019-02-26T01:34:31.710Z,84.56
2019-02-26T01:37:00.914Z,84.73
2019-02-26T01:39:28.046Z,84.76
2019-02-26T01:41:58.717Z,84.74
2019-02-26T01:44:28.119Z,84.76
2019-02-26T01:46:53.775Z,84.85
2019-02-26T01:49:23.642Z,84.83
2019-02-26T01:51:51.792Z,84.69
2019-02-26T01:54:18.878Z,84.67
2019-02-26T01:56:47.403Z,84.59
2019-02-26T01:59:18.263Z,84.50
2019-02-26T02:04:24.346Z,84.93
2019-02-26T02:06:54.445Z,84.73
2019-02-26T02:09:22.749Z,84.59
2019-02-26T02:11:49.442Z,84.45
2019-02-26T02:14:17.490Z,84.38
2019-02-26T02:16:46.156Z,84.49
2019-02-26T02:19:18.083Z,84.49
2019-02-26T02:21:42.686Z,84.46
2019-02-26T02:24:12.810Z,84.39
2019-02-26T02:26:41.093Z,84.47
2019-02-26T02:29:07.570Z,84.57
2019-02-26T02:31:37.722Z,84.64
2019-02-26T02:34:03.969Z,84.88
2019-02-26T02:36:31.926Z,84.96
2019-02-26T02:38:59.986Z,85.04
2019-02-26T02:41:28.456Z,85.14
2019-02-26T02:43:56.461Z,85.05
2019-02-26T02:46:24.683Z,84.91
2019-02-26T02:48:53.192Z,84.98
2019-02-26T02:51:21.607Z,85.00
2019-02-26T02:53:51.076Z,85.21
2019-02-26T02:56:18.076Z,85.39
2019-02-26T02:58:46.962Z,85.59
2019-02-26T03:01:16.491Z,85.69
2019-02-26T03:03:43.031Z,85.71
2019-02-26T03:06:12.360Z,85.58
2019-02-26T03:08:39.885Z,85.46
2019-02-26T03:11:07.665Z,85.35
2019-02-26T03:13:35.886Z,85.29
2019-02-26T03:16:03.918Z,85.31
2019-02-26T03:18:32.289Z,85.34
2019-02-26T03:21:02.452Z,85.18
2019-02-26T03:23:28.355Z,85.16
2019-02-26T03:25:56.553Z,85.18
2019-02-26T03:28:25.003Z,85.40
2019-02-26T03:30:53.172Z,85.49
2019-02-26T03:33:21.411Z,85.61
2019-02-26T03:35:50.036Z,85.85
2019-02-26T03:38:20.638Z,86.04
2019-02-26T03:40:48.965Z,86.13
2019-02-26T03:43:16.311Z,86.10
2019-02-26T03:45:47.313Z,86.04
2019-02-26T03:48:11.492Z,85.91
2019-02-26T03:50:44.083Z,85.74
2019-02-26T03:53:09.930Z,85.66
2019-02-26T03:55:38.812Z,85.65
2019-02-26T03:58:04.090Z,85.84
2019-02-26T04:00:34.632Z,86.14
2019-02-26T04:03:00.023Z,86.41
2019-02-26T04:05:28.597Z,86.67
2019-02-26T04:07:58.912Z,86.91
2019-02-26T04:10:24.207Z,87.21
2019-02-26T04:12:55.356Z,87.41
2019-02-26T04:15:24.322Z,87.63
2019-02-26T04:17:49.181Z,87.75
2019-02-26T04:20:17.902Z,87.85
2019-02-26T04:22:48.960Z,87.86
2019-02-26T04:25:18.130Z,87.94
2019-02-26T04:28:10.806Z,87.93
2019-02-26T04:32:57.569Z,87.93
2019-02-26T04:35:36.155Z,87.75
2019-02-26T04:38:29.079Z,88.02
2019-02-26T04:41:10.236Z,88.23
2019-02-26T04:43:58.509Z,88.87
2019-02-26T04:46:36.953Z,89.07
2019-02-26T04:49:03.095Z,89.38
2019-02-26T04:51:31.496Z,89.84
2019-02-26T04:54:02.031Z,89.91
2019-02-26T04:56:31.258Z,90.12
2019-02-26T04:58:56.533Z,90.43
2019-02-26T05:01:24.687Z,90.89
2019-02-26T05:03:57.017Z,91.32
2019-02-26T05:06:25.647Z,91.73
2019-02-26T05:08:55.921Z,91.82
2019-02-26T05:11:31.800Z,91.99
2019-02-26T05:13:50.543Z,92.10
2019-02-26T05:16:19.275Z,92.29
2019-02-26T05:18:49.599Z,92.33
2019-02-26T05:21:16.564Z,92.61
2019-02-26T05:23:46.610Z,92.81
2019-02-26T05:26:18.086Z,92.74
2019-02-26T05:28:49.712Z,92.99
2019-02-26T05:31:17.935Z,92.78
2019-02-26T05:33:49.570Z,92.53
2019-02-26T05:36:17.227Z,92.47
2019-02-26T05:38:43.607Z,92.43
2019-02-26T05:41:11.500Z,92.46
2019-02-26T05:43:39.671Z,92.63
2019-02-26T05:46:07.874Z,92.71
2019-02-26T05:48:37.167Z,92.72
2019-02-26T05:51:05.743Z,92.49
2019-02-26T05:53:33.150Z,92.57
2019-02-26T05:56:01.363Z,92.51
2019-02-26T05:58:29.150Z,92.44
2019-02-26T06:00:57.966Z,92.32
2019-02-26T06:03:25.831Z,92.31
2019-02-26T06:05:55.500Z,92.15
2019-02-26T06:08:25.650Z,92.06
2019-02-26T06:10:49.760Z,91.89
2019-02-26T06:13:18.100Z,91.73
2019-02-26T06:15:46.233Z,91.70
2019-02-26T06:18:14.168Z,91.72
2019-02-26T06:20:42.125Z,91.71
2019-02-26T06:23:10.173Z,91.71
2019-02-26T06:25:38.426Z,91.89
2019-02-26T06:28:07.721Z,91.97
2019-02-26T06:30:34.849Z,92.04
2019-02-26T06:33:04.360Z,92.37
2019-02-26T06:35:31.555Z,92.79
2019-02-26T06:38:00.037Z,93.76
2019-02-26T06:40:27.578Z,94.26
2019-02-26T06:42:55.564Z,94.41
2019-02-26T06:45:23.802Z,94.67
2019-02-26T06:47:53.988Z,94.66
2019-02-26T06:50:19.886Z,94.67
2019-02-26T06:52:50.546Z,94.67
2019-02-26T06:55:17.002Z,94.81
2019-02-26T06:57:47.216Z,94.93
2019-02-26T07:00:16.218Z,95.14
2019-02-26T07:02:45.514Z,95.42
2019-02-26T07:05:12.260Z,95.53
2019-02-26T07:07:40.634Z,95.63
2019-02-26T07:10:13.813Z,95.61
2019-02-26T07:12:40.536Z,95.58
2019-02-26T07:15:11.698Z,95.43
2019-02-26T07:17:39.045Z,95.50
2019-02-26T07:20:06.956Z,95.59
2019-02-26T07:22:35.514Z,95.58
2019-02-26T07:25:03.795Z,95.47
2019-02-26T07:27:33.700Z,95.41
2019-02-26T07:30:00.343Z,95.12
2019-02-26T07:32:28.139Z,94.91
2019-02-26T07:34:58.078Z,94.48
2019-02-26T07:37:29.219Z,94.00
2019-02-26T07:39:56.623Z,93.46
2019-02-26T07:42:24.637Z,93.03
2019-02-26T07:44:53.291Z,92.57
2019-02-26T07:47:22.097Z,91.77
2019-02-26T07:49:49.229Z,91.55
2019-02-26T07:52:17.468Z,90.96
2019-02-26T07:54:47.082Z,90.38
2019-02-26T07:57:13.326Z,89.83
2019-02-26T07:59:42.549Z,89.02
2019-02-26T08:02:11.357Z,88.01
2019-02-26T08:04:39.477Z,87.44
2019-02-26T08:07:06.882Z,86.65
2019-02-26T08:09:35.125Z,86.18
2019-02-26T08:12:04.348Z,85.97
2019-02-26T08:17:06.107Z,84.74
2019-02-26T08:19:31.948Z,84.29
2019-02-26T08:21:59.989Z,83.61
2019-02-26T08:24:28.030Z,82.80
2019-02-26T08:26:56.235Z,82.53
2019-02-26T08:29:26.359Z,82.21
2019-02-26T08:31:52.680Z,81.74
2019-02-26T08:34:20.705Z,81.27
2019-02-26T08:36:48.807Z,80.64
2019-02-26T08:39:16.587Z,79.69
2019-02-26T08:42:00.165Z,79.17
2019-02-26T08:44:28.218Z,78.81
2019-02-26T08:46:55.906Z,78.47
2019-02-26T08:49:24.307Z,77.56
2019-02-26T08:51:52.426Z,76.37
2019-02-26T08:54:21.266Z,75.57
2019-02-26T08:56:48.124Z,75.25
2019-02-26T08:59:17.742Z,74.80
2019-02-26T09:01:43.840Z,74.73
2019-02-26T09:04:12.284Z,74.44
2019-02-26T09:06:39.743Z,73.91
2019-02-26T09:09:07.891Z,73.38
2019-02-26T09:11:43.585Z,72.57
2019-02-26T09:14:13.980Z,71.78
2019-02-26T09:16:40.250Z,70.86
2019-02-26T09:19:08.998Z,70.32
2019-02-26T09:21:39.518Z,69.85
2019-02-26T09:24:07.632Z,69.34
2019-02-26T09:26:32.824Z,69.75
2019-02-26T09:29:01.005Z,69.68
2019-02-26T09:31:29.179Z,69.50
2019-02-26T09:33:57.206Z,68.22
2019-02-26T09:36:26.204Z,67.67
2019-02-26T09:38:53.198Z,67.68
2019-02-26T09:41:21.481Z,66.49
2019-02-26T09:43:49.161Z,65.67
2019-02-26T09:46:19.074Z,65.69
2019-02-26T09:48:46.337Z,65.84
2019-02-26T09:51:14.788Z,64.92
2019-02-26T09:53:42.443Z,64.32
2019-02-26T09:56:10.379Z,63.16
2019-02-26T09:58:40.346Z,63.00
2019-02-26T10:01:08.701Z,61.44
2019-02-26T10:03:38.604Z,61.23
2019-02-26T10:06:03.415Z,60.89
2019-02-26T10:08:31.956Z,60.76
2019-02-26T10:11:02.150Z,60.59
2019-02-26T10:13:27.953Z,60.95
2019-02-26T10:15:58.584Z,60.86
2019-02-26T10:18:25.652Z,60.36
2019-02-26T10:20:54.627Z,59.45
2019-02-26T10:23:21.777Z,58.62
2019-02-26T10:25:53.199Z,57.72
2019-02-26T10:28:17.120Z,56.89
2019-02-26T10:30:45.043Z,57.54
2019-02-26T10:33:12.865Z,55.69
2019-02-26T10:35:44.403Z,54.36
2019-02-26T10:40:53.510Z,53.39
2019-02-26T10:43:11.067Z,52.01
2019-02-26T10:45:42.407Z,51.40
2019-02-26T10:48:07.555Z,51.45
2019-02-26T10:50:37.268Z,51.22
2019-02-26T10:53:09.718Z,50.37
2019-02-26T10:55:38.434Z,49.05
2019-02-26T10:58:04.677Z,48.17
2019-02-26T11:00:32.215Z,47.42
2019-02-26T11:02:56.810Z,46.65
2019-02-26T11:05:26.508Z,46.14
2019-02-26T11:07:55.772Z,44.58
2019-02-26T11:10:23.216Z,45.07
2019-02-26T11:12:53.533Z,45.30
2019-02-26T11:15:21.594Z,45.26
2019-02-26T11:17:50.461Z,44.63
2019-02-26T11:20:16.686Z,42.56
2019-02-26T11:22:47.005Z,42.82
2019-02-26T11:25:13.999Z,42.30
2019-02-26T11:27:43.486Z,40.20
2019-02-26T11:30:11.705Z,39.69
2019-02-26T11:32:40.411Z,39.87
2019-02-26T11:35:08.826Z,39.24
2019-02-26T11:37:36.601Z,38.54
2019-02-26T11:40:06.429Z,37.14
2019-02-26T11:42:34.713Z,34.90
2019-02-26T11:45:02.726Z,34.89
2019-02-26T11:47:32.216Z,34.28
2019-02-26T11:49:59.688Z,34.65
2019-02-26T11:52:26.965Z,33.66
2019-02-26T11:54:56.297Z,34.14
2019-02-26T11:57:23.469Z,35.12
2019-02-26T11:59:51.694Z,34.16
2019-02-26T12:02:26.699Z,34.21
2019-02-26T12:04:47.631Z,34.58
2019-02-26T12:07:15.584Z,33.48
2019-02-26T12:09:43.496Z,34.45
2019-02-26T12:12:11.708Z,33.04
2019-02-26T12:14:43.216Z,32.65
2019-02-26T12:17:08.599Z,33.42
2019-02-26T12:19:37.175Z,32.77
2019-02-26T12:22:06.002Z,33.02
2019-02-26T12:24:33.631Z,32.28
2019-02-26T12:27:01.704Z,30.10
2019-02-26T12:29:29.729Z,29.52
2019-02-26T12:31:58.907Z,28.89
2019-02-26T12:34:26.161Z,28.98
2019-02-26T12:36:57.211Z,26.88
2019-02-26T12:39:24.820Z,27.23
2019-02-26T12:41:49.974Z,27.00
2019-02-26T12:44:17.855Z,27.10
2019-02-26T12:46:47.607Z,24.76
2019-02-26T12:49:15.757Z,27.77
2019-02-26T12:51:41.687Z,27.80
2019-02-26T12:54:12.640Z,28.33
2019-02-26T12:56:37.763Z,28.98
2019-02-26T12:59:07.165Z,28.87
2019-02-26T13:01:36.031Z,27.98
2019-02-26T13:04:02.852Z,25.47
2019-02-26T13:06:30.702Z,26.58
2019-02-26T13:08:58.445Z,26.91
2019-02-26T13:11:26.513Z,27.06
2019-02-26T13:13:55.020Z,26.92
2019-02-26T13:16:23.176Z,27.02
2019-02-26T13:18:52.622Z,26.42
2019-02-26T13:21:19.221Z,26.06
2019-02-26T13:23:47.310Z,26.39
2019-02-26T13:26:19.677Z,25.83
2019-02-26T13:28:46.739Z,26.16
2019-02-26T13:31:13.387Z,26.49
2019-02-26T13:33:42.125Z,25.28
2019-02-26T13:36:08.455Z,26.55
2019-02-26T13:38:44.849Z,27.31
2019-02-26T13:43:33.774Z,26.43
2019-02-26T13:46:03.010Z,27.49
2019-02-26T13:48:30.950Z,27.92
2019-02-26T13:50:59.082Z,27.43
2019-02-26T13:53:27.527Z,27.78
2019-02-26T13:55:55.374Z,27.13
2019-02-26T13:58:23.199Z,23.37
2019-02-26T14:00:51.028Z,23.57
2019-02-26T14:03:18.851Z,24.40
2019-02-26T14:05:46.834Z,25.75
2019-02-26T14:08:14.886Z,23.62
2019-02-26T14:10:43.022Z,23.58
2019-02-26T14:13:10.832Z,22.50
2019-02-26T14:15:39.236Z,24.37
2019-02-26T14:18:08.021Z,22.99
2019-02-26T14:20:36.111Z,23.30
2019-02-26T14:23:04.585Z,22.04
2019-02-26T14:25:34.207Z,22.99
2019-02-26T14:28:02.287Z,22.56
2019-02-26T14:30:30.206Z,23.57
2019-02-26T14:32:58.090Z,23.26
2019-02-26T14:35:25.877Z,22.81
2019-02-26T14:37:54.219Z,23.13
2019-02-26T14:40:22.274Z,22.50
2019-02-26T14:42:50.093Z,20.09
2019-02-26T14:45:18.263Z,20.71
2019-02-26T14:47:46.328Z,20.52
2019-02-26T14:50:15.671Z,20.95
2019-02-26T14:52:43.938Z,21.42
2019-02-26T14:55:12.250Z,22.04
2019-02-26T14:57:40.185Z,20.67
2019-02-26T15:00:11.957Z,21.43
2019-02-26T15:02:39.742Z,20.68
2019-02-26T15:05:07.760Z,20.88
2019-02-26T15:07:35.934Z,20.74
2019-02-26T15:10:05.754Z,21.65
2019-02-26T15:12:33.558Z,22.19
2019-02-26T15:15:02.135Z,22.31
2019-02-26T15:17:30.901Z,23.37
2019-02-26T15:19:58.263Z,24.75
2019-02-26T15:22:26.785Z,26.16
2019-02-26T15:24:55.347Z,27.21
2019-02-26T15:27:23.102Z,27.82
2019-02-26T15:29:51.796Z,28.59
2019-02-26T15:32:20.018Z,28.81
2019-02-26T15:34:50.286Z,29.13
2019-02-26T15:37:18.836Z,29.42
2019-02-26T15:39:53.559Z,29.60
2019-02-26T15:42:22.198Z,29.73
2019-02-26T15:44:51.649Z,29.46
2019-02-26T15:47:19.566Z,29.52
2019-02-26T15:49:48.082Z,29.61
2019-02-26T15:52:16.963Z,29.65
2019-02-26T15:54:45.615Z,29.99
2019-02-26T15:57:14.019Z,30.19
2019-02-26T15:59:43.548Z,30.28
2019-02-26T16:02:12.518Z,30.61
2019-02-26T16:04:40.652Z,30.07
2019-02-26T16:07:09.841Z,27.72
2019-02-26T16:09:37.953Z,27.23
2019-02-26T16:12:05.914Z,25.68
2019-02-26T16:14:34.295Z,25.79
2019-02-26T16:17:02.522Z,25.94
2019-02-26T16:19:30.428Z,26.42
2019-02-26T16:21:58.989Z,26.06
2019-02-26T16:24:27.046Z,26.48
2019-02-26T16:26:56.246Z,26.11
2019-02-26T16:29:25.022Z,26.97
2019-02-26T16:31:52.896Z,27.10
2019-02-26T16:34:21.180Z,27.20
2019-02-26T16:36:48.952Z,27.11
2019-02-26T16:39:18.983Z,27.57
2019-02-26T16:41:47.559Z,27.74
2019-02-26T16:44:18.129Z,28.28
2019-02-26T16:46:46.853Z,27.61
2019-02-26T16:49:17.239Z,28.19
2019-02-26T16:51:46.347Z,27.97
2019-02-26T16:54:19.468Z,28.24
2019-02-26T16:56:50.125Z,28.22
2019-02-26T16:59:18.045Z,28.12
2019-02-26T17:01:46.287Z,28.70
2019-02-26T17:04:16.022Z,28.97
2019-02-26T17:06:44.524Z,28.98
2019-02-26T17:09:14.323Z,29.22
2019-02-26T17:11:44.573Z,29.22
2019-02-26T17:14:17.347Z,29.44
2019-02-26T17:16:45.910Z,29.55
2019-02-26T17:19:15.473Z,29.86
2019-02-26T17:21:42.663Z,30.42
2019-02-26T17:24:11.448Z,30.08
2019-02-26T17:26:39.739Z,30.37
2019-02-26T17:29:07.738Z,29.83
2019-02-26T17:31:37.660Z,29.97
2019-02-26T17:34:12.567Z,29.61
2019-02-26T17:36:41.803Z,29.21
2019-02-26T17:39:11.130Z,29.48
2019-02-26T17:41:39.043Z,29.87
2019-02-26T17:44:08.085Z,29.93
2019-02-26T17:46:36.275Z,29.90
2019-02-26T17:49:07.990Z,30.23
2019-02-26T17:51:37.765Z,30.54
2019-02-26T17:54:07.258Z,30.29
2019-02-26T17:56:36.326Z,30.64
2019-02-26T17:59:05.399Z,31.00
2019-02-26T18:01:33.470Z,31.69
2019-02-26T18:04:01.563Z,32.16
2019-02-26T18:06:29.795Z,32.58
2019-02-26T18:08:58.159Z,32.77
2019-02-26T18:11:26.271Z,33.34
2019-02-26T18:13:54.278Z,33.02
2019-02-26T18:16:22.238Z,33.59
2019-02-26T18:18:50.368Z,33.61
2019-02-26T18:21:18.482Z,33.92
2019-02-26T18:23:46.747Z,33.54
2019-02-26T18:26:17.381Z,34.06
2019-02-26T18:28:42.901Z,34.51
2019-02-26T18:31:11.062Z,34.80
2019-02-26T18:33:39.349Z,35.24
2019-02-26T18:36:07.413Z,34.80
2019-02-26T18:38:35.746Z,35.14
2019-02-26T18:41:03.801Z,35.04
2019-02-26T18:43:31.801Z,35.66
2019-02-26T18:46:00.864Z,35.78
2019-02-26T18:48:34.959Z,35.43
2019-02-26T18:51:03.762Z,35.50
2019-02-26T18:53:32.242Z,35.79
2019-02-26T18:56:01.799Z,35.64
2019-02-26T18:58:28.951Z,35.89
2019-02-26T19:00:58.669Z,36.49
2019-02-26T19:03:25.812Z,36.78
2019-02-26T19:05:54.667Z,37.04
2019-02-26T19:08:21.879Z,37.41
2019-02-26T19:10:50.880Z,37.66
2019-02-26T19:13:18.322Z,37.80
2019-02-26T19:15:48.441Z,38.02
2019-02-26T19:18:15.775Z,38.17
2019-02-26T19:20:44.408Z,38.35
2019-02-26T19:23:12.825Z,38.53
2019-02-26T19:25:41.635Z,38.89
2019-02-26T19:28:09.902Z,39.21
2019-02-26T19:30:37.575Z,39.54
2019-02-26T19:33:06.387Z,39.80
2019-02-26T19:35:38.180Z,40.00
2019-02-26T19:38:03.299Z,40.17
2019-02-26T19:40:34.173Z,40.16
2019-02-26T19:43:02.291Z,40.23
2019-02-26T19:45:32.830Z,40.39
2019-02-26T19:47:58.931Z,40.53
2019-02-26T19:50:27.166Z,40.70
2019-02-26T19:52:57.277Z,40.84
2019-02-26T19:55:26.836Z,41.07
2019-02-26T19:57:55.016Z,41.21
2019-02-26T20:00:23.947Z,41.38
2019-02-26T20:02:51.824Z,41.52
2019-02-26T20:05:21.094Z,41.67
2019-02-26T20:07:50.215Z,41.93
2019-02-26T20:10:18.842Z,42.12
2019-02-26T20:12:46.705Z,42.26
2019-02-26T20:15:14.983Z,42.43
2019-02-26T20:17:43.360Z,42.54
2019-02-26T20:20:11.970Z,42.67
2019-02-26T20:22:39.757Z,42.79
2019-02-26T20:25:09.855Z,42.88
2019-02-26T20:27:38.390Z,43.04
2019-02-26T20:30:09.622Z,43.24
2019-02-26T20:32:36.092Z,43.49
2019-02-26T20:35:04.946Z,43.77
2019-02-26T20:37:32.847Z,44.04
2019-02-26T20:40:00.745Z,44.23
2019-02-26T20:42:29.547Z,44.37
2019-02-26T20:44:59.125Z,44.43
2019-02-26T20:47:25.491Z,44.53
2019-02-26T20:49:54.066Z,44.70
2019-02-26T20:52:21.923Z,44.90
2019-02-26T20:54:49.794Z,45.05
2019-02-26T20:57:18.259Z,45.22
2019-02-26T20:59:46.424Z,45.30
2019-02-26T21:02:14.203Z,45.44
2019-02-26T21:04:42.681Z,45.61
2019-02-26T21:07:10.822Z,45.86
2019-02-26T21:09:41.044Z,46.13
2019-02-26T21:12:07.061Z,46.49
2019-02-26T21:14:35.207Z,46.69
2019-02-26T21:17:03.752Z,46.82
2019-02-26T21:19:35.570Z,47.13
2019-02-26T21:22:02.111Z,47.53
2019-02-26T21:24:31.883Z,47.54
2019-02-26T21:26:58.022Z,47.61
2019-02-26T21:29:26.042Z,47.58
2019-02-26T21:31:54.449Z,47.70
2019-02-26T21:34:23.163Z,48.02
2019-02-26T21:36:51.018Z,47.99
2019-02-26T21:39:19.049Z,48.01
2019-02-26T21:41:47.110Z,48.01
2019-02-26T21:44:16.435Z,47.93
2019-02-26T21:46:44.627Z,47.89
2019-02-26T21:49:12.887Z,47.92
2019-02-26T21:51:40.681Z,48.00
2019-02-26T21:54:08.626Z,48.25
2019-02-26T21:56:36.927Z,48.68
2019-02-26T21:59:04.966Z,49.01
2019-02-26T22:01:32.823Z,49.13
2019-02-26T22:04:01.833Z,49.11
2019-02-26T22:06:30.005Z,49.19
2019-02-26T22:08:57.918Z,49.25
2019-02-26T22:11:26.023Z,49.29
2019-02-26T22:13:55.557Z,49.41
2019-02-26T22:16:23.958Z,49.50
2019-02-26T22:18:52.194Z,49.66
2019-02-26T22:21:20.175Z,49.79
2019-02-26T22:23:48.108Z,49.99
2019-02-26T22:26:16.443Z,50.17
2019-02-26T22:28:44.630Z,50.28
2019-02-26T22:31:12.654Z,50.31
2019-02-26T22:33:43.427Z,50.40
2019-02-26T22:36:09.900Z,50.52
2019-02-26T22:38:38.951Z,50.68
2019-02-26T22:41:07.394Z,50.74
2019-02-26T22:43:35.295Z,50.76
2019-02-26T22:46:03.193Z,50.95
2019-02-26T22:48:31.638Z,51.35
2019-02-26T22:51:00.324Z,51.49
2019-02-26T22:53:28.689Z,51.47
2019-02-26T22:55:57.481Z,51.54
2019-02-26T22:58:25.645Z,51.67
2019-02-26T23:01:02.687Z,51.74
2019-02-26T23:30:59.892Z,52.06
2019-02-26T23:33:28.875Z,52.13
2019-02-26T23:35:58.675Z,52.39
2019-02-26T23:38:28.802Z,52.55
2019-02-26T23:41:00.312Z,52.71
2019-02-26T23:43:29.590Z,52.88
2019-02-26T23:45:58.947Z,53.06
2019-02-26T23:48:28.780Z,53.28
2019-02-26T23:50:58.678Z,53.27
2019-02-26T23:53:29.026Z,53.25
2019-02-26T23:55:58.786Z,53.27
2019-02-26T23:58:31.192Z,53.36
